In Rescue
 
Open Full Screen Window  High Contrast Mode
July 23, 2019 12:40 AM EDT
Weather Information
Wind Direction
  ---
Wind Speed
  00 kt (0 mph)
Wind Gust
  00 kt (0 mph)
Altimeter
30.06 in
Visibility
10 SM
Temperature
14° C
57° F
Dewpoint
12° C
54° F
Humidity
88%
Sky Condition
Clear
VFR

METAR KFKS 230440Z AUTO 00000KT 10SM CLR 14/12 A3006 RMK AO2

FAA Disclaimer: The data displayed is for advisory purposes only and is not to be used for flight planning or operations.